Time;durP1;ratioP1;P1;durP2;ratioP2;P2;SDS_P1;SDS_P2;PMS_P1;PMS_P2;Temp;Humidity;BMP_temperature;BMP_pressure;BME280_temperature;BME280_humidity;BME280_pressure;Samples;Min_cycle;Max_cycle;Signal;HPM_P1;HPM_P2
2022/04/24 00:02:07;;;;;;;89.68;11.50;;;;;;;10.37;100.00;96206.19;5002646;28;20092;-56
2022/04/24 00:04:32;;;;;;;84.70;11.43;;;;;;;10.32;100.00;96203.06;5004428;28;20344;-55
2022/04/24 00:06:57;;;;;;;92.38;11.77;;;;;;;10.19;100.00;96187.41;5001121;28;20721;-55
2022/04/24 00:09:23;;;;;;;75.75;11.10;;;;;;;10.20;100.00;96177.81;5003497;28;20036;-55
2022/04/24 00:11:48;;;;;;;79.63;11.07;;;;;;;10.04;100.00;96172.84;5004604;28;20048;-56
2022/04/24 00:14:17;;;;;;;87.25;11.32;;;;;;;10.15;100.00;96161.69;5003715;28;20026;-55
2022/04/24 00:16:43;;;;;;;85.97;11.60;;;;;;;10.12;100.00;96152.31;5002425;28;20296;-56
2022/04/24 00:19:08;;;;;;;93.05;11.95;;;;;;;10.04;100.00;96152.81;5005897;28;20052;-55
2022/04/24 00:21:34;;;;;;;83.38;11.20;;;;;;;10.11;100.00;96157.59;5006161;28;20041;-56
2022/04/24 00:23:59;;;;;;;94.38;12.20;;;;;;;10.25;100.00;96164.50;5002654;28;20109;-57
2022/04/24 00:26:24;;;;;;;79.85;11.43;;;;;;;9.98;100.00;96162.81;5002600;28;20065;-55
2022/04/24 00:28:50;;;;;;;87.97;11.85;;;;;;;10.06;100.00;96165.75;5005253;28;20080;-56
2022/04/24 00:31:15;;;;;;;84.00;11.93;;;;;;;9.96;100.00;96164.69;5003751;28;20044;-55
2022/04/24 00:33:41;;;;;;;85.63;11.63;;;;;;;10.01;100.00;96160.84;5003059;28;20030;-55
2022/04/24 00:36:06;;;;;;;83.03;11.93;;;;;;;10.12;100.00;96154.91;5000402;28;20884;-55
2022/04/24 00:38:33;;;;;;;78.63;11.38;;;;;;;10.12;100.00;96157.50;5001914;28;20707;-55
2022/04/24 00:40:58;;;;;;;85.93;11.27;;;;;;;10.09;100.00;96151.69;5001152;28;20652;-56
2022/04/24 00:43:24;;;;;;;70.50;10.77;;;;;;;9.97;100.00;96148.16;5002892;28;20084;-56
2022/04/24 00:46:10;;;;;;;94.40;12.07;;;;;;;10.00;100.00;96140.13;5000888;28;20041;-56
2022/04/24 00:48:35;;;;;;;80.82;11.60;;;;;;;9.89;100.00;96133.06;5002211;28;20579;-55
2022/04/24 00:51:01;;;;;;;88.47;11.73;;;;;;;9.86;100.00;96122.84;5003768;28;20124;-55
2022/04/24 00:53:26;;;;;;;91.15;11.77;;;;;;;9.79;100.00;96119.81;5004482;28;20022;-55
2022/04/24 00:55:52;;;;;;;89.68;12.63;;;;;;;9.79;100.00;96118.97;5007071;28;20639;-56
2022/04/24 00:58:18;;;;;;;82.70;13.98;;;;;;;9.67;100.00;96118.06;5004556;28;20106;-55
2022/04/24 01:00:44;;;;;;;97.82;14.27;;;;;;;9.70;100.00;96119.59;5003491;28;20794;-56
2022/04/24 01:03:10;;;;;;;80.57;12.95;;;;;;;9.76;100.00;96122.63;5004135;28;20108;-56
2022/04/24 01:05:36;;;;;;;67.45;12.57;;;;;;;9.63;100.00;96117.44;5005628;28;20033;-57
2022/04/24 01:08:01;;;;;;;97.07;13.45;;;;;;;9.79;100.00;96127.63;5001509;28;20029;-56
2022/04/24 01:10:26;;;;;;;78.30;13.05;;;;;;;9.77;100.00;96123.47;5001220;28;20042;-57
2022/04/24 01:12:51;;;;;;;76.32;13.75;;;;;;;9.65;100.00;96125.13;5002611;28;20034;-57
2022/04/24 01:15:17;;;;;;;77.00;12.85;;;;;;;9.62;100.00;96110.53;5004819;28;20021;-58
2022/04/24 01:17:43;;;;;;;84.80;14.82;;;;;;;9.54;100.00;96106.78;5004059;28;20756;-55
2022/04/24 01:20:10;;;;;;;89.05;13.68;;;;;;;9.70;100.00;96098.78;5001516;28;20767;-56
2022/04/24 01:22:36;;;;;;;80.18;14.38;;;;;;;9.65;100.00;96104.31;5004079;28;20029;-56
2022/04/24 01:25:01;;;;;;;83.20;13.60;;;;;;;9.64;100.00;96102.63;5002315;28;20026;-55
2022/04/24 01:27:26;;;;;;;70.13;13.40;;;;;;;9.59;100.00;96100.34;5003264;28;20041;-55
2022/04/24 01:29:52;;;;;;;86.72;14.02;;;;;;;9.48;100.00;96102.81;5003647;28;20383;-55
2022/04/24 01:32:17;;;;;;;83.15;14.02;;;;;;;9.59;100.00;96110.75;5004498;28;20487;-55
2022/04/24 01:34:43;;;;;;;109.97;15.95;;;;;;;9.59;100.00;96109.91;5000856;28;21099;-56
2022/04/24 01:37:08;;;;;;;102.82;15.23;;;;;;;9.48;100.00;96115.00;5001970;28;20084;-55
2022/04/24 01:39:33;;;;;;;90.22;14.20;;;;;;;9.54;100.00;96114.59;5004463;28;20552;-55
2022/04/24 01:41:59;;;;;;;97.45;14.98;;;;;;;9.50;100.00;96123.53;5004368;28;20101;-55
2022/04/24 01:44:24;;;;;;;76.80;14.25;;;;;;;9.41;100.00;96123.22;5004529;28;20586;-55
2022/04/24 01:46:49;;;;;;;97.18;15.05;;;;;;;9.48;100.00;96122.81;5000816;28;20049;-55
2022/04/24 01:49:15;;;;;;;87.88;14.70;;;;;;;9.53;100.00;96120.75;5002248;28;20022;-55
2022/04/24 01:51:40;;;;;;;86.97;15.02;;;;;;;9.52;100.00;96113.84;5001877;28;20034;-56
2022/04/24 01:54:05;;;;;;;84.78;14.10;;;;;;;9.52;100.00;96119.06;5003083;28;20072;-56
2022/04/24 01:56:31;;;;;;;99.82;15.52;;;;;;;9.61;100.00;96113.25;5003453;28;20881;-56
2022/04/24 01:58:56;;;;;;;91.07;14.82;;;;;;;9.49;100.00;96111.47;5001109;28;20026;-56
2022/04/24 02:01:21;;;;;;;85.03;14.30;;;;;;;9.53;100.00;96107.72;5001943;28;20156;-59
2022/04/24 02:03:47;;;;;;;107.55;15.40;;;;;;;9.58;100.00;96108.25;5004128;28;20032;-57
2022/04/24 02:06:12;;;;;;;79.38;14.35;;;;;;;9.62;100.00;96094.91;5000038;28;20072;-55
2022/04/24 02:08:38;;;;;;;106.82;16.08;;;;;;;9.57;100.00;96096.16;5003559;28;20381;-56
2022/04/24 02:11:08;;;;;;;73.82;13.80;;;;;;;9.66;100.00;96095.53;5002426;28;20693;-55
2022/04/24 02:13:33;;;;;;;90.95;15.48;;;;;;;9.77;100.00;96082.63;5000262;28;20580;-55
2022/04/24 02:15:58;;;;;;;78.70;14.15;;;;;;;9.67;100.00;96065.13;5001855;28;20104;-55
2022/04/24 02:18:24;;;;;;;89.70;15.38;;;;;;;9.64;100.00;96067.00;5001564;28;20487;-55
2022/04/24 02:20:49;;;;;;;79.80;14.63;;;;;;;9.69;100.00;96045.91;5000520;28;20499;-56
2022/04/24 02:23:15;;;;;;;84.30;15.73;;;;;;;9.67;100.00;96054.72;5003783;28;20526;-56
2022/04/24 02:25:40;;;;;;;87.25;15.15;;;;;;;9.75;100.00;96035.03;5000208;28;20412;-56
2022/04/24 02:28:06;;;;;;;74.57;15.05;;;;;;;9.75;100.00;96032.44;5002335;28;20037;-56
2022/04/24 02:30:32;;;;;;;85.00;15.25;;;;;;;9.84;100.00;96030.97;5001322;28;20052;-55
2022/04/24 02:32:59;;;;;;;82.75;14.75;;;;;;;9.71;100.00;96025.78;5004925;28;20660;-56
2022/04/24 02:35:26;;;;;;;83.65;14.75;;;;;;;9.71;100.00;96023.19;4999577;28;20018;-57
2022/04/24 02:37:51;;;;;;;99.07;16.38;;;;;;;9.71;100.00;96019.75;5000498;28;20037;-57
2022/04/24 02:40:21;;;;;;;71.10;13.32;;;;;;;9.81;100.00;96020.78;5000479;28;20022;-55
2022/04/24 02:42:48;;;;;;;80.18;15.23;;;;;;;9.81;100.00;96015.56;5002134;28;20760;-57
2022/04/24 02:45:13;;;;;;;97.32;15.15;;;;;;;9.81;100.00;96023.38;5000240;28;20052;-57
2022/04/24 02:47:39;;;;;;;79.10;15.15;;;;;;;9.87;100.00;96036.00;5001705;28;20030;-56
2022/04/24 02:50:05;;;;;;;125.18;18.33;;;;;;;9.87;100.00;96042.94;4999517;28;20029;-55
2022/04/24 02:52:30;;;;;;;67.35;14.50;;;;;;;9.87;100.00;96058.56;5002228;28;20026;-55
2022/04/24 02:54:56;;;;;;;111.57;16.10;;;;;;;9.78;100.00;96067.88;4999397;28;20482;-56
2022/04/24 02:57:21;;;;;;;75.68;14.77;;;;;;;9.76;100.00;96060.16;5002000;28;20651;-56
2022/04/24 02:59:49;;;;;;;78.30;14.95;;;;;;;9.79;100.00;96049.50;5001322;28;20113;-56
2022/04/24 03:02:17;;;;;;;82.07;15.43;;;;;;;9.70;100.00;96047.53;5003861;28;20423;-56
2022/04/24 03:04:45;;;;;;;87.40;17.00;;;;;;;9.73;100.00;96054.31;5004535;28;20132;-56
2022/04/24 03:07:10;;;;;;;93.35;18.40;;;;;;;9.59;100.00;96052.66;5003772;28;20069;-56
2022/04/24 03:09:36;;;;;;;83.10;15.20;;;;;;;9.74;100.00;96056.81;5003700;28;20080;-57
2022/04/24 03:12:01;;;;;;;90.75;16.35;;;;;;;9.73;100.00;96056.94;5005330;28;20050;-56
2022/04/24 03:14:27;;;;;;;84.18;14.85;;;;;;;9.64;100.00;96047.97;5005094;28;20083;-55
2022/04/24 03:16:52;;;;;;;77.53;15.10;;;;;;;9.54;100.00;96049.53;5003428;28;20045;-56
2022/04/24 03:19:17;;;;;;;96.28;16.70;;;;;;;9.58;100.00;96045.81;5005268;28;20025;-56
2022/04/24 03:21:43;;;;;;;73.25;15.57;;;;;;;9.58;100.00;96032.78;5005312;28;20700;-55
2022/04/24 03:24:08;;;;;;;75.68;16.92;;;;;;;9.58;100.00;96036.22;5005018;28;20037;-55
2022/04/24 03:26:33;;;;;;;80.35;15.70;;;;;;;9.70;100.00;96039.72;5002973;28;20057;-55
2022/04/24 03:28:58;;;;;;;75.43;15.20;;;;;;;9.50;100.00;96035.06;5001909;28;20117;-57
2022/04/24 03:31:24;;;;;;;87.80;16.33;;;;;;;9.58;100.00;96035.38;5001786;28;20049;-56
2022/04/24 03:33:52;;;;;;;84.15;15.90;;;;;;;9.69;100.00;96038.09;5002315;28;20044;-55
2022/04/24 03:36:18;;;;;;;76.25;16.42;;;;;;;9.62;100.00;96026.44;5004667;28;20121;-56
2022/04/24 03:38:43;;;;;;;94.18;16.17;;;;;;;9.65;100.00;96028.81;5006606;28;20026;-56
2022/04/24 03:41:09;;;;;;;81.82;16.38;;;;;;;9.70;100.00;96018.91;5007473;28;20044;-56
2022/04/24 03:43:34;;;;;;;72.70;15.40;;;;;;;9.80;100.00;96019.94;5005705;28;20045;-56
2022/04/24 03:45:59;;;;;;;84.47;15.93;;;;;;;9.72;100.00;96031.81;5003438;28;20701;-56
2022/04/24 03:48:25;;;;;;;81.68;15.15;;;;;;;9.71;100.00;96036.22;5003057;28;20021;-56
2022/04/24 03:50:51;;;;;;;85.00;15.00;;;;;;;9.74;100.00;96036.00;5002626;28;20121;-57
2022/04/24 03:53:17;;;;;;;77.90;15.82;;;;;;;9.84;100.00;96051.81;5003684;28;20535;-56
2022/04/24 03:55:42;;;;;;;85.20;15.00;;;;;;;9.92;100.00;96056.47;5003923;28;20034;-56
2022/04/24 03:58:07;;;;;;;77.80;15.52;;;;;;;9.96;100.00;96055.31;5005991;28;20083;-56
2022/04/24 04:00:32;;;;;;;64.82;15.50;;;;;;;9.97;100.00;96063.03;5004188;28;20080;-56
2022/04/24 04:02:58;;;;;;;84.82;16.05;;;;;;;10.03;100.00;96056.56;5003988;28;20026;-56
2022/04/24 04:05:23;;;;;;;73.20;15.40;;;;;;;10.04;100.00;96068.66;5005259;28;20025;-57
2022/04/24 04:07:49;;;;;;;97.45;15.65;;;;;;;9.97;100.00;96064.81;5006657;28;20437;-56
2022/04/24 04:10:14;;;;;;;91.22;16.15;;;;;;;9.95;100.00;96062.31;5004893;28;20699;-55
2022/04/24 04:12:40;;;;;;;79.28;14.30;;;;;;;10.08;100.00;96069.28;5003968;28;20034;-55
2022/04/24 04:15:06;;;;;;;87.18;15.15;;;;;;;10.00;100.00;96078.47;5004393;28;20523;-57
2022/04/24 04:17:35;;;;;;;86.38;15.70;;;;;;;10.16;100.00;96088.66;5003391;28;20037;-56
2022/04/24 04:20:00;;;;;;;95.43;17.00;;;;;;;10.09;100.00;96095.22;5004601;28;20029;-56
2022/04/24 04:22:26;;;;;;;70.50;15.18;;;;;;;9.92;100.00;96078.13;5003444;28;20088;-56
2022/04/24 04:24:52;;;;;;;114.97;17.30;;;;;;;10.08;100.00;96075.31;5003237;28;20065;-56
2022/04/24 04:27:18;;;;;;;89.85;16.73;;;;;;;9.95;100.00;96090.13;5002163;28;20046;-57
2022/04/24 04:29:43;;;;;;;71.85;15.98;;;;;;;10.03;100.00;96087.81;5001881;28;20251;-57
2022/04/24 04:32:09;;;;;;;78.78;15.98;;;;;;;10.07;100.00;96088.44;5003517;28;20565;-57
2022/04/24 04:34:34;;;;;;;84.43;15.50;;;;;;;10.26;100.00;96119.28;5003180;28;20116;-56
2022/04/24 04:37:00;;;;;;;95.63;16.90;;;;;;;10.08;100.00;96101.34;5002234;28;20057;-56
2022/04/24 04:39:25;;;;;;;88.22;16.88;;;;;;;10.17;100.00;96112.91;5003747;28;20019;-57
2022/04/24 04:41:51;;;;;;;80.32;16.10;;;;;;;9.88;100.00;96120.13;5002555;28;20052;-55
2022/04/24 04:44:17;;;;;;;90.85;16.88;;;;;;;10.25;100.00;96118.41;5003634;28;20025;-55
2022/04/24 04:46:43;;;;;;;85.47;14.73;;;;;;;10.33;100.00;96115.31;5001451;28;20137;-55
2022/04/24 04:49:08;;;;;;;102.35;17.90;;;;;;;10.27;100.00;96126.13;5004094;28;20554;-55
2022/04/24 04:51:34;;;;;;;68.97;17.00;;;;;;;10.14;100.00;96126.97;5003964;28;20562;-55
2022/04/24 04:53:59;;;;;;;86.70;18.95;;;;;;;10.09;100.00;96123.88;5001996;28;20619;-57
2022/04/24 04:56:24;;;;;;;83.95;18.50;;;;;;;10.10;100.00;96116.88;5004662;28;20131;-55
2022/04/24 04:58:50;;;;;;;72.03;18.30;;;;;;;9.94;100.00;96117.09;5004563;28;20022;-55
2022/04/24 05:01:15;;;;;;;93.53;21.10;;;;;;;10.05;100.00;96106.78;5003803;28;20149;-55
2022/04/24 05:03:40;;;;;;;84.40;19.10;;;;;;;9.62;100.00;96114.91;5004595;28;20061;-56
2022/04/24 05:06:06;;;;;;;83.45;16.33;;;;;;;10.01;100.00;96118.34;4997704;28;20061;-56
2022/04/24 05:08:31;;;;;;;84.55;18.80;;;;;;;10.08;100.00;96143.03;5000733;28;20483;-57
2022/04/24 05:10:56;;;;;;;89.47;18.30;;;;;;;10.13;100.00;96193.06;5002523;28;20050;-55
2022/04/24 05:13:22;;;;;;;79.97;18.08;;;;;;;10.02;100.00;96216.41;5002040;28;20057;-55
2022/04/24 05:15:47;;;;;;;84.35;18.52;;;;;;;9.77;100.00;96191.97;5003667;28;20029;-55
2022/04/24 05:18:13;;;;;;;93.63;19.55;;;;;;;10.16;100.00;96203.28;5006814;28;20070;-57
2022/04/24 05:20:38;;;;;;;101.55;20.85;;;;;;;10.12;100.00;96201.78;5003200;28;20037;-55
2022/04/24 05:23:06;;;;;;;85.57;19.05;;;;;;;10.07;100.00;96190.84;5001625;28;20618;-56
2022/04/24 05:25:32;;;;;;;89.82;17.10;;;;;;;10.43;100.00;96194.53;5002537;28;20163;-55
2022/04/24 05:27:57;;;;;;;82.07;19.67;;;;;;;10.33;100.00;96193.47;5002646;28;20026;-56
2022/04/24 05:30:23;;;;;;;98.70;20.35;;;;;;;10.13;100.00;96198.25;5003859;28;20044;-55
2022/04/24 05:32:50;;;;;;;103.95;20.13;;;;;;;10.49;100.00;96201.91;5003811;28;20472;-55
2022/04/24 05:35:16;;;;;;;98.95;18.35;;;;;;;10.47;100.00;96205.56;5001374;28;20532;-56
2022/04/24 05:37:42;;;;;;;95.60;20.50;;;;;;;10.29;100.00;96200.63;5004249;28;20053;-56
2022/04/24 05:40:08;;;;;;;95.50;19.38;;;;;;;10.57;100.00;96198.78;5000939;28;20117;-55
2022/04/24 05:42:34;;;;;;;106.40;19.83;;;;;;;10.70;100.00;96193.53;5001918;28;20076;-56
2022/04/24 05:45:00;;;;;;;81.28;18.60;;;;;;;10.94;100.00;96197.00;5000556;28;20439;-55
2022/04/24 05:47:26;;;;;;;78.50;19.60;;;;;;;10.60;100.00;96199.41;5001875;28;20037;-55
2022/04/24 05:49:51;;;;;;;82.30;15.90;;;;;;;11.12;100.00;96213.13;5003362;28;20036;-56
2022/04/24 05:52:16;;;;;;;78.20;18.25;;;;;;;10.91;100.00;96199.00;5000930;28;20029;-55
2022/04/24 05:54:42;;;;;;;118.93;20.70;;;;;;;10.52;100.00;96193.88;4999958;28;20091;-56
2022/04/24 05:57:07;;;;;;;92.18;17.83;;;;;;;10.86;100.00;96196.72;5003297;28;20038;-55
2022/04/24 05:59:32;;;;;;;75.45;14.70;;;;;;;11.03;100.00;96186.84;5001706;28;20353;-55
2022/04/24 06:01:57;;;;;;;89.07;19.55;;;;;;;10.86;100.00;96196.72;5002556;28;20074;-57
2022/04/24 06:04:23;;;;;;;80.28;19.33;;;;;;;10.47;100.00;96193.34;5002698;28;20057;-55
2022/04/24 06:06:48;;;;;;;95.72;20.30;;;;;;;10.49;100.00;96194.09;5001175;28;20453;-55
2022/04/24 06:09:13;;;;;;;82.53;17.83;;;;;;;10.91;100.00;96197.22;5002711;28;20042;-55
2022/04/24 06:11:41;;;;;;;81.70;18.60;;;;;;;10.88;100.00;96194.00;5002547;28;20080;-55
2022/04/24 06:14:06;;;;;;;75.50;18.27;;;;;;;10.74;100.00;96201.03;5000609;28;20022;-55
2022/04/24 06:16:31;;;;;;;79.50;18.65;;;;;;;10.82;100.00;96202.25;5000897;28;20034;-55
2022/04/24 06:18:57;;;;;;;99.30;20.42;;;;;;;10.96;100.00;96207.34;5003204;28;20080;-55
2022/04/24 06:21:22;;;;;;;87.78;19.55;;;;;;;10.94;100.00;96194.41;5004741;28;20403;-55
2022/04/24 06:23:47;;;;;;;74.93;18.33;;;;;;;10.81;100.00;96198.84;5001394;28;20037;-56
2022/04/24 06:26:13;;;;;;;72.00;16.48;;;;;;;10.94;100.00;96202.22;5001740;28;20691;-58
2022/04/24 06:28:38;;;;;;;88.32;18.25;;;;;;;11.09;100.00;96202.09;5003513;28;20025;-57
2022/04/24 06:31:03;;;;;;;82.75;20.25;;;;;;;11.10;100.00;96204.59;5002944;28;20096;-57
2022/04/24 06:33:29;;;;;;;77.55;19.98;;;;;;;10.79;100.00;96211.16;5002143;28;20026;-57
2022/04/24 06:35:55;;;;;;;76.07;19.15;;;;;;;10.69;100.00;96204.91;5001959;28;20037;-57
2022/04/24 06:38:22;;;;;;;91.45;18.75;;;;;;;10.85;100.00;96210.72;5001263;28;20490;-56
2022/04/24 06:40:48;;;;;;;96.30;19.08;;;;;;;11.06;100.00;96212.72;5000602;28;20046;-57
2022/04/24 06:43:13;;;;;;;94.75;17.98;;;;;;;11.12;100.00;96222.72;5000255;28;20038;-57
2022/04/24 06:45:40;;;;;;;84.60;18.77;;;;;;;10.80;100.00;96225.84;5001443;28;20033;-55
2022/04/24 06:48:11;;;;;;;85.97;17.80;;;;;;;11.06;100.00;96231.00;5002833;28;20037;-57
2022/04/24 06:50:38;;;;;;;74.22;19.10;;;;;;;10.79;100.00;96232.84;5001310;28;20033;-57
2022/04/24 06:53:05;;;;;;;79.00;19.27;;;;;;;10.82;100.00;96236.16;5000936;28;20018;-56
2022/04/24 06:55:36;;;;;;;91.50;20.70;;;;;;;10.68;100.00;96252.75;4999746;28;20034;-57
2022/04/24 06:58:03;;;;;;;94.28;20.88;;;;;;;10.54;100.00;96280.63;5003468;28;20033;-57
2022/04/24 07:00:30;;;;;;;82.35;21.27;;;;;;;10.64;100.00;96282.59;5001788;28;20726;-57
2022/04/24 07:02:56;;;;;;;90.32;22.13;;;;;;;11.15;100.00;96285.13;5000591;28;20109;-57
2022/04/24 07:05:24;;;;;;;100.85;21.90;;;;;;;11.32;100.00;96300.44;4998369;28;20156;-56
2022/04/24 07:07:49;;;;;;;95.82;23.08;;;;;;;10.70;100.00;96305.66;5003172;28;20047;-56
2022/04/24 07:10:15;;;;;;;94.60;21.42;;;;;;;12.64;100.00;96318.66;5002232;28;20088;-57
2022/04/24 07:12:48;;;;;;;85.78;19.02;;;;;;;13.67;100.00;96317.66;5002815;28;20037;-56
2022/04/24 07:15:15;;;;;;;114.43;23.83;;;;;;;18.94;100.00;96313.00;5002209;28;20030;-56
2022/04/24 07:17:41;;;;;;;111.88;21.48;;;;;;;21.17;100.00;96277.88;4999628;28;20053;-56
2022/04/24 07:20:08;;;;;;;98.80;20.67;;;;;;;24.58;100.00;96254.53;5000864;28;20021;-56
2022/04/24 07:22:51;;;;;;;126.03;21.95;;;;;;;24.95;100.00;96236.50;5000646;28;20063;-57
2022/04/24 07:25:21;;;;;;;86.22;19.15;;;;;;;13.44;100.00;96264.53;5000125;28;20068;-56
2022/04/24 07:27:47;;;;;;;90.13;19.63;;;;;;;12.09;100.00;96287.06;5001590;28;20028;-56
2022/04/24 07:30:13;;;;;;;90.40;18.70;;;;;;;11.51;100.00;96302.56;5000700;28;20049;-56
2022/04/24 07:32:50;;;;;;;107.47;22.08;;;;;;;11.15;100.00;96306.81;5001965;28;20042;-57
2022/04/24 07:35:21;;;;;;;93.30;20.02;;;;;;;11.18;100.00;96318.84;5001026;28;20025;-57
2022/04/24 07:37:47;;;;;;;86.13;20.73;;;;;;;10.73;100.00;96323.69;5004487;28;20786;-57
2022/04/24 07:40:14;;;;;;;91.18;21.35;;;;;;;11.04;100.00;96330.22;5002834;28;20708;-56
2022/04/24 07:42:48;;;;;;;102.28;22.00;;;;;;;10.93;100.00;96328.34;5003597;28;20037;-57
2022/04/24 07:45:18;;;;;;;89.32;20.08;;;;;;;10.96;100.00;96335.16;4998988;28;20057;-57
2022/04/24 07:47:46;;;;;;;96.43;18.95;;;;;;;11.17;100.00;96351.09;5002784;28;20033;-56
2022/04/24 07:50:16;;;;;;;77.60;14.88;;;;;;;11.24;100.00;96360.16;5004423;28;20029;-59
2022/04/24 07:52:42;;;;;;;101.88;19.67;;;;;;;11.05;100.00;96367.59;5005055;28;20080;-58
2022/04/24 07:55:10;;;;;;;97.63;20.10;;;;;;;10.40;100.00;96367.59;5005247;28;20037;-56
2022/04/24 07:57:36;;;;;;;83.25;16.60;;;;;;;10.41;100.00;96378.84;5004675;28;20113;-56
2022/04/24 08:00:02;;;;;;;74.07;14.13;;;;;;;10.54;100.00;96379.69;5004761;28;20121;-56
2022/04/24 08:02:28;;;;;;;76.25;13.52;;;;;;;10.33;100.00;96381.09;5003913;28;20502;-56
2022/04/24 08:04:53;;;;;;;104.43;11.65;;;;;;;9.94;100.00;96380.94;5006188;28;20480;-56
2022/04/24 08:07:22;;;;;;;81.15;10.07;;;;;;;9.99;100.00;96399.72;5009112;28;20034;-56
2022/04/24 08:09:49;;;;;;;76.05;8.85;;;;;;;9.88;100.00;96401.34;5005326;28;20030;-57
2022/04/24 08:12:15;;;;;;;76.03;7.55;;;;;;;9.83;100.00;96388.63;5002133;28;20645;-57
2022/04/24 08:14:40;;;;;;;67.57;7.53;;;;;;;10.01;100.00;96404.84;5004554;28;20026;-57
2022/04/24 08:17:05;;;;;;;66.75;6.30;;;;;;;9.24;100.00;96397.50;5003248;28;20137;-56
2022/04/24 08:19:30;;;;;;;66.03;6.65;;;;;;;9.48;100.00;96396.06;5004565;28;20026;-56
2022/04/24 08:21:56;;;;;;;65.18;6.90;;;;;;;9.54;100.00;96399.13;5002352;28;20691;-57
2022/04/24 08:24:21;;;;;;;75.57;6.93;;;;;;;9.94;100.00;96403.56;5005258;28;20040;-56
2022/04/24 08:26:46;;;;;;;55.20;5.80;;;;;;;9.45;100.00;96395.31;5003582;28;20038;-56
2022/04/24 08:29:12;;;;;;;74.65;7.35;;;;;;;9.99;100.00;96393.69;5003072;28;20439;-56
2022/04/24 08:31:37;;;;;;;60.55;5.85;;;;;;;9.56;100.00;96392.03;5003586;28;20120;-57
2022/04/24 08:34:02;;;;;;;68.40;6.43;;;;;;;9.62;100.00;96396.03;5004395;28;20160;-56
2022/04/24 08:36:27;;;;;;;52.50;5.50;;;;;;;9.71;100.00;96392.84;5004193;28;20042;-57
2022/04/24 08:38:53;;;;;;;59.35;5.65;;;;;;;9.68;100.00;96398.25;5005257;28;20030;-56
2022/04/24 08:41:23;;;;;;;72.10;6.50;;;;;;;9.36;100.00;96406.28;5004507;28;20041;-56
2022/04/24 08:43:49;;;;;;;69.03;6.28;;;;;;;9.52;100.00;96400.97;5004671;28;20030;-57
2022/04/24 08:46:14;;;;;;;68.93;6.32;;;;;;;9.40;100.00;96402.56;5003705;28;20037;-55
2022/04/24 08:48:45;;;;;;;55.67;6.22;;;;;;;9.69;100.00;96407.72;5004401;28;20112;-57
2022/04/24 08:51:10;;;;;;;74.22;6.68;;;;;;;9.81;100.00;96406.09;5004342;28;20045;-57
2022/04/24 08:53:36;;;;;;;55.55;5.85;;;;;;;9.45;100.00;96412.69;5004353;28;20026;-57
2022/04/24 08:56:02;;;;;;;39.45;5.20;;;;;;;10.02;100.00;96403.91;5003064;28;20042;-56
2022/04/24 08:58:28;;;;;;;60.13;6.05;;;;;;;9.93;100.00;96394.91;5003086;28;20732;-57
2022/04/24 09:00:53;;;;;;;63.42;6.03;;;;;;;9.91;100.00;96393.34;5002435;28;20115;-56
2022/04/24 09:03:18;;;;;;;64.97;6.80;;;;;;;9.86;100.00;96375.41;5001213;28;20022;-55
2022/04/24 09:05:44;;;;;;;60.30;5.85;;;;;;;10.33;100.00;96374.13;4998400;28;20049;-55
2022/04/24 09:08:11;;;;;;;62.60;5.88;;;;;;;10.53;100.00;96378.03;5002252;28;20034;-57
2022/04/24 09:10:52;;;;;;;62.58;6.07;;;;;;;10.63;100.00;96374.81;5002792;28;20034;-57
2022/04/24 09:13:29;;;;;;;53.95;5.57;;;;;;;10.34;100.00;96365.34;5001934;28;20393;-56
2022/04/24 09:15:56;;;;;;;52.28;5.10;;;;;;;10.01;100.00;96350.16;5003539;28;20041;-56
2022/04/24 09:18:21;;;;;;;63.58;5.47;;;;;;;10.80;100.00;96344.00;5003737;28;20033;-56
2022/04/24 09:20:54;;;;;;;59.38;5.43;;;;;;;11.05;100.00;96338.91;5000267;28;20568;-56
2022/04/24 09:23:20;;;;;;;59.20;5.43;;;;;;;11.13;100.00;96323.53;5000336;28;20083;-58
2022/04/24 09:25:45;;;;;;;59.55;5.03;;;;;;;11.29;100.00;96320.69;5003958;28;20789;-55
2022/04/24 09:28:11;;;;;;;51.13;4.80;;;;;;;11.52;100.00;96313.81;5002947;28;20650;-56
2022/04/24 09:30:36;;;;;;;70.50;6.20;;;;;;;11.23;100.00;96313.28;5002438;28;20384;-56
2022/04/24 09:33:06;;;;;;;57.85;4.80;;;;;;;11.83;100.00;96306.38;5003273;28;20741;-56
2022/04/24 09:35:33;;;;;;;65.28;5.30;;;;;;;11.67;100.00;96304.91;5003790;28;20519;-57
2022/04/24 09:38:08;;;;;;;53.65;4.47;;;;;;;12.07;100.00;96304.59;5003730;28;20029;-57
2022/04/24 09:40:38;;;;;;;66.13;5.13;;;;;;;11.59;100.00;96304.59;4999467;28;20045;-58
2022/04/24 09:43:04;;;;;;;66.60;5.40;;;;;;;11.63;100.00;96303.44;5001939;28;20033;-57
2022/04/24 09:45:29;;;;;;;72.13;5.15;;;;;;;11.41;100.00;96301.53;4999389;28;20060;-57
2022/04/24 09:47:59;;;;;;;78.72;6.15;;;;;;;11.19;100.00;96297.00;5003722;28;20440;-57
2022/04/24 09:50:29;;;;;;;58.83;4.35;;;;;;;12.08;100.00;96300.22;5002707;28;20038;-58
2022/04/24 09:52:57;;;;;;;81.10;5.78;;;;;;;12.50;100.00;96298.78;5002025;28;20025;-55
2022/04/24 09:55:24;;;;;;;60.70;4.70;;;;;;;11.97;100.00;96301.03;5000043;28;20040;-57
2022/04/24 09:57:51;;;;;;;60.45;4.78;;;;;;;12.40;100.00;96303.03;5001007;28;20032;-56
2022/04/24 10:00:18;;;;;;;60.40;4.82;;;;;;;12.33;100.00;96300.06;5004938;28;20029;-57
2022/04/24 10:02:44;;;;;;;70.15;4.95;;;;;;;11.86;100.00;96312.22;5002258;28;20034;-56
2022/04/24 10:05:09;;;;;;;68.18;5.00;;;;;;;12.23;100.00;96306.09;4995314;28;20065;-58
2022/04/24 10:07:35;;;;;;;57.35;4.72;;;;;;;12.41;100.00;96311.72;5000448;28;20118;-56
2022/04/24 10:10:00;;;;;;;61.38;4.95;;;;;;;12.73;100.00;96306.66;5001138;28;20121;-56
2022/04/24 10:12:26;;;;;;;64.93;5.18;;;;;;;12.44;100.00;96304.50;5001062;28;20045;-57
2022/04/24 10:15:01;;;;;;;103.55;6.78;;;;;;;12.90;100.00;96302.72;4999102;28;20503;-55
2022/04/24 10:17:40;;;;;;;57.15;4.30;;;;;;;13.20;100.00;96307.38;5000396;28;20033;-56
2022/04/24 10:20:42;;;;;;;77.57;5.43;;;;;;;12.85;100.00;96321.41;5000145;28;20026;-56
2022/04/24 10:23:09;;;;;;;70.22;5.15;;;;;;;13.35;100.00;96318.44;5000492;28;20014;-57
2022/04/24 10:25:38;;;;;;;47.95;4.68;;;;;;;13.55;100.00;96324.72;4999386;28;20026;-57
2022/04/24 10:28:10;;;;;;;60.85;4.68;;;;;;;13.65;100.00;96323.03;5000717;28;20045;-56
2022/04/24 10:30:35;;;;;;;64.30;5.10;;;;;;;13.17;100.00;96325.09;5000531;28;20177;-57
2022/04/24 10:33:20;;;;;;;64.63;4.50;;;;;;;12.65;100.00;96325.56;5000641;28;20030;-56
2022/04/24 10:35:48;;;;;;;53.00;4.00;;;;;;;12.77;100.00;96329.00;4998490;28;20057;-57
2022/04/24 10:38:14;;;;;;;54.40;4.93;;;;;;;14.13;100.00;96334.06;5000618;28;20026;-57
2022/04/24 10:40:39;;;;;;;62.83;5.20;;;;;;;13.76;100.00;96342.31;4999389;28;20095;-57
2022/04/24 10:43:08;;;;;;;62.03;5.43;;;;;;;14.72;100.00;96345.84;5001131;28;20033;-55
2022/04/24 10:45:45;;;;;;;54.33;3.88;;;;;;;13.96;100.00;96344.13;5002719;28;20029;-55
2022/04/24 10:48:15;;;;;;;77.88;5.38;;;;;;;13.75;100.00;96345.88;5002017;28;20025;-56
2022/04/24 10:50:48;;;;;;;50.15;3.88;;;;;;;13.38;100.00;96354.03;5000304;28;20057;-55
2022/04/24 10:53:13;;;;;;;60.55;4.28;;;;;;;14.17;100.00;96345.97;5002778;28;20037;-55
2022/04/24 10:55:39;;;;;;;70.65;5.43;;;;;;;14.25;100.00;96335.69;4998675;28;20039;-55
2022/04/24 10:58:05;;;;;;;42.60;3.92;;;;;;;13.90;100.00;96343.81;4999392;28;20112;-55
2022/04/24 11:00:34;;;;;;;59.08;4.50;;;;;;;13.52;100.00;96332.81;4999934;28;20033;-55
2022/04/24 11:03:14;;;;;;;75.03;5.22;;;;;;;12.90;100.00;96329.75;5000483;28;20026;-55
2022/04/24 11:05:43;;;;;;;57.42;4.35;;;;;;;13.80;100.00;96333.22;4998275;28;20048;-55
2022/04/24 11:08:17;;;;;;;64.80;4.82;;;;;;;13.14;100.00;96320.94;5000650;28;20040;-57
2022/04/24 11:10:45;;;;;;;67.57;5.05;;;;;;;12.63;100.00;96326.63;5000281;28;20033;-56
2022/04/24 11:13:16;;;;;;;52.40;4.28;;;;;;;12.12;100.00;96343.47;5001625;28;20033;-54